Weather History for Sparta, WI

Change the Weather History Date:

Tuesday, July 10, 2012

  Actual Average Record
Temperature  
Mean Temperature 68 °F -  
Max Temperature 86 °F 85 °F 97 °F (1966)
Min Temperature 50 °F 59 °F 45 °F (1953)
Cooling Degree Days 3    
Growing Degree Days 18 (Base 50)    
Moisture  
Dew Point 49 °F    
Average Humidity 56    
Maximum Humidity 94    
Minimum Humidity 20    
Precipitation  
Precipitation 0.00 in - - ()
Sea Level Pressure  
Sea Level Pressure 30.14 in    
Wind  
Wind Speed 2 mph (East)    
Max Wind Speed 9 mph    
Max Gust Speed 20 mph    
Visibility 10 miles    
Events      
Averages and records for this station are not official NWS values.
T = Trace of Precipitation, MM = Missing Value Source: NWS Daily Summary

Daily Weather History Graph

Daily Weather History Graph

Search for Another Location

Airport:

Trip Planner

Search our weather history database for the weather conditions in past years. The results will help you decide how hot, cold, wet, or windy it might be!

Date:

Astronomy

Jul. 10, 2012 Rise Set
Actual Time 5:30 AM CDT 8:45 PM CDT
Civil Twilight 4:55 AM CDT 9:21 PM CDT
Nautical Twilight 4:09 AM CDT 10:06 PM CDT
Astronomical Twilight 3:12 AM CDT 11:02 PM CDT
Moon No Moon Rise 1:14 PM CDT (7/10)
Length of Visible Light 16h 26m
Length of Day
15h 15m
Waning Gibbous, 54% of the Moon is Illuminated
Jul 10
Waning Gibbous
Jul 10
Last Quarter
Jul 18
New
Jul 26
First Quarter
Aug 1
Full

Hourly Weather History & Observations

Time (CDT) Temp. Dew Point Humidity Pressure Visibility Wind Dir Wind Speed Gust Speed Precip Events Conditions
12:15 AM 59.0 °F 51.8 °F 77% 30.12 in 10.0 mi Calm Calm - N/A   Clear
12:35 AM 55.4 °F 50.0 °F 82% 30.12 in 10.0 mi Calm Calm - N/A   Clear
12:55 AM 57.2 °F 51.8 °F 82% 30.13 in 10.0 mi Calm Calm - N/A   Clear
1:15 AM 55.4 °F 50.0 °F 82% 30.13 in 10.0 mi Calm Calm - N/A   Clear
1:35 AM 53.6 °F 50.0 °F 88% 30.13 in 10.0 mi Calm Calm - N/A   Clear
1:55 AM 53.6 °F 50.0 °F 88% 30.13 in 10.0 mi Calm Calm - N/A   Clear
2:15 AM 53.6 °F 50.0 °F 88% 30.13 in 10.0 mi Calm Calm - N/A   Clear
2:35 AM 53.6 °F 50.0 °F 88% 30.13 in 10.0 mi Calm Calm - N/A   Clear
2:55 AM 53.6 °F 50.0 °F 88% 30.14 in 10.0 mi Calm Calm - N/A   Clear
3:15 AM 51.8 °F 50.0 °F 94% 30.14 in 10.0 mi Calm Calm - N/A   Clear
3:35 AM 51.8 °F 50.0 °F 94% 30.14 in 10.0 mi Calm Calm - N/A   Clear
3:55 AM 51.8 °F 50.0 °F 94% 30.14 in 10.0 mi Calm Calm - N/A   Clear
4:15 AM 51.8 °F 50.0 °F 94% 30.15 in 10.0 mi Calm Calm - N/A   Clear
4:35 AM 51.8 °F 48.2 °F 88% 30.15 in 10.0 mi Calm Calm - N/A   Clear
4:55 AM 51.8 °F 48.2 °F 88% 30.15 in 10.0 mi Calm Calm - N/A   Clear
5:15 AM 50.0 °F 48.2 °F 94% 30.15 in 10.0 mi Calm Calm - N/A   Clear
5:35 AM 50.0 °F 48.2 °F 94% 30.16 in 10.0 mi Calm Calm - N/A   Clear
5:55 AM 51.8 °F 50.0 °F 94% 30.16 in 10.0 mi Calm Calm - N/A   Clear
6:15 AM 51.8 °F 50.0 °F 94% 30.17 in 10.0 mi Calm Calm - N/A   Clear
6:35 AM 55.4 °F 51.8 °F 88% 30.17 in 10.0 mi Calm Calm - N/A   Clear
6:55 AM 57.2 °F 51.8 °F 82% 30.17 in 10.0 mi Calm Calm - N/A   Clear
7:15 AM 60.8 °F 53.6 °F 77% 30.17 in 10.0 mi Calm Calm - N/A   Clear
7:35 AM 62.6 °F 55.4 °F 77% 30.17 in 10.0 mi Calm Calm - N/A   Clear
7:55 AM 64.4 °F 57.2 °F 77% 30.18 in 10.0 mi Calm Calm - N/A   Clear
8:15 AM 68.0 °F 59.0 °F 73% 30.17 in 10.0 mi Calm Calm - N/A   Clear
8:35 AM 69.8 °F 59.0 °F 68% 30.18 in 10.0 mi Calm Calm - N/A   Clear
8:55 AM 73.4 °F 59.0 °F 61% 30.18 in 10.0 mi Calm Calm - N/A   Clear
9:15 AM 75.2 °F 57.2 °F 53% 30.18 in 10.0 mi ESE 4.6 mph - N/A   Clear
10:15 AM 78.8 °F 51.8 °F 39% 30.17 in 10.0 mi ESE 8.1 mph - N/A   Clear
10:35 AM 78.8 °F 51.8 °F 39% 30.17 in 10.0 mi East 6.9 mph - N/A   Clear
10:55 AM 80.6 °F 51.8 °F 37% 30.17 in 10.0 mi Calm Calm - N/A   Clear
11:15 AM 78.8 °F 46.4 °F 32% 30.17 in 10.0 mi NE 6.9 mph - N/A   Scattered Clouds
11:35 AM 82.4 °F 50.0 °F 32% 30.17 in 10.0 mi NE 5.8 mph - N/A   Scattered Clouds
11:55 AM 82.4 °F 46.4 °F 28% 30.17 in 10.0 mi ENE 6.9 mph - N/A   Scattered Clouds
12:15 PM 82.4 °F 44.6 °F 26% 30.16 in 10.0 mi ESE 5.8 mph - N/A   Clear
12:35 PM 82.4 °F 44.6 °F 26% 30.16 in 10.0 mi NNE 4.6 mph - N/A   Scattered Clouds
12:55 PM 82.4 °F 44.6 °F 26% 30.16 in 10.0 mi NW 8.1 mph - N/A   Clear
1:15 PM 80.6 °F 48.2 °F 32% 30.16 in 10.0 mi North 5.8 mph - N/A   Clear
1:35 PM 82.4 °F 46.4 °F 28% 30.15 in 10.0 mi ENE 9.2 mph - N/A   Clear
1:55 PM 84.2 °F 44.6 °F 25% 30.15 in 10.0 mi SSE 6.9 mph - N/A   Clear
2:15 PM 82.4 °F 44.6 °F 26% 30.14 in 10.0 mi South 4.6 mph - N/A   Clear
2:35 PM 82.4 °F 44.6 °F 26% 30.14 in 10.0 mi Calm Calm - N/A   Clear
2:55 PM 82.4 °F 44.6 °F 26% 30.14 in 10.0 mi NNE 3.5 mph - N/A   Clear
3:15 PM 80.6 °F 44.6 °F 28% 30.13 in 10.0 mi SE 5.8 mph - N/A   Clear
3:35 PM 86.0 °F 44.6 °F 23% 30.13 in 10.0 mi South 5.8 mph - N/A   Scattered Clouds
3:55 PM 82.4 °F 44.6 °F 26% 30.13 in 10.0 mi SSW 4.6 mph - N/A   Clear
4:15 PM 86.0 °F 42.8 °F 22% 30.12 in 10.0 mi Calm Calm - N/A   Clear
4:35 PM 86.0 °F 42.8 °F 22% 30.12 in 10.0 mi NE 6.9 mph 19.6 mph N/A   Scattered Clouds
4:55 PM 82.4 °F 42.8 °F 25% 30.12 in 10.0 mi SE 4.6 mph - N/A   Clear
5:15 PM 84.2 °F 42.8 °F 23% 30.12 in 10.0 mi ESE 5.8 mph - N/A   Clear
5:35 PM 86.0 °F 42.8 °F 22% 30.12 in 10.0 mi Calm Calm - N/A   Clear
5:55 PM 86.0 °F 42.8 °F 22% 30.11 in 10.0 mi Calm Calm - N/A   Scattered Clouds
6:15 PM 86.0 °F 41.0 °F 20% 30.11 in 10.0 mi ENE 8.1 mph - N/A   Clear
6:35 PM 86.0 °F 42.8 °F 22% 30.10 in 10.0 mi ENE 4.6 mph - N/A   Clear
6:55 PM 84.2 °F 42.8 °F 23% 30.10 in 10.0 mi East 4.6 mph - N/A   Clear
7:15 PM 84.2 °F 42.8 °F 23% 30.10 in 10.0 mi ENE 5.8 mph - N/A   Scattered Clouds
7:35 PM 82.4 °F 42.8 °F 25% 30.10 in 10.0 mi East 3.5 mph - N/A   Clear
7:55 PM 82.4 °F 44.6 °F 26% 30.10 in 10.0 mi Calm Calm - N/A   Clear
8:15 PM 78.8 °F 46.4 °F 32% 30.10 in 10.0 mi North 4.6 mph - N/A   Clear
8:35 PM 77.0 °F 50.0 °F 39% 30.10 in 10.0 mi Calm Calm - N/A   Clear
8:55 PM 71.6 °F 53.6 °F 53% 30.11 in 10.0 mi Calm Calm - N/A   Clear
9:15 PM 69.8 °F 53.6 °F 56% 30.12 in 10.0 mi East 3.5 mph - N/A   Clear
9:35 PM 68.0 °F 55.4 °F 64% 30.12 in 10.0 mi East 3.5 mph - N/A   Clear
9:55 PM 66.2 °F 55.4 °F 68% 30.13 in 10.0 mi Calm Calm - N/A   Clear
10:15 PM 64.4 °F 53.6 °F 68% 30.13 in 10.0 mi Calm Calm - N/A   Clear
10:35 PM 62.6 °F 53.6 °F 72% 30.13 in 10.0 mi Calm Calm - N/A   Clear
10:55 PM 60.8 °F 53.6 °F 77% 30.13 in 10.0 mi Calm Calm - N/A   Clear
11:15 PM 60.8 °F 53.6 °F 77% 30.14 in 10.0 mi Calm Calm - N/A   Clear
11:35 PM 59.0 °F 53.6 °F 82% 30.14 in 10.0 mi Calm Calm - N/A   Clear
11:55 PM 59.0 °F 51.8 °F 77% 30.15 in 10.0 mi Calm Calm - N/A   Clear